Terminal Aerodrome Forecast
Issued by NWS

Home | Current Version | Previous Version | Text Only | Print | Product List | Glossary On
Versions: 1 2 3 4 5 6 7 8 9 10 11 12 13 14 15 16 17 18 19 20 21 22 23 24 25 26 27 28
217
FTUS41 KBUF 241734 AAB
TAFIAG
TAF AMD
KIAG 241734Z 2418/2518 20008KT P6SM SCT035
     FM250700 18013KT P6SM BKN045
     FM251200 19015G21KT 4SM SHRA SCT015 OVC025
     FM251500 23020G33KT P6SM OVC100=

USA.gov is the U.S. government's official web portal to all federal, state and local government web resources and services.